KACV/ACV METAR and TAF weather

Enter ICAO airport designator
Station Type Date Time Source
KACV METAR 2024/04/17 17:53 UTC NOAA

KACV 171753Z AUTO 25007KT 10SM CLR 10/07 A3018 RMK AO2 SLP228 T01000072 10106 20028 55000


Station Type Date Time Source
KACV Decoded METAR 2024/04/17 17:53 UTC NOAA

ARCATA/EUREKA ARCATA AIRPORT, CA, United States (KACV) 40-59N 124-06W 67M
Apr 17, 2024 - 01:53 PM EDT / 2024.04.17 1753 UTC
Wind: from the WSW (250 degrees) at 8 MPH (7 KT):0
Visibility: 10 mile(s):0
Sky conditions: clear
Temperature: 50.0 F (10.0 C)
Dew Point: 45.0 F (7.2 C)
Relative Humidity: 82%
Pressure (altimeter): 30.18 in. Hg (1022 hPa)
Pressure tendency: 0.00 inches (0.0 hPa) lower than three hours ago
ob: KACV 171753Z AUTO 25007KT 10SM CLR 10/07 A3018 RMK AO2 SLP228 T01000072 10106 20028 55000
cycle: 18

Station Type Date Time Source
KACV TAF 2024/04/17 18:42 UTC NOAA